createdAt,value
2018-03-02T00:01:28.754Z,-1.20
2018-03-02T00:03:59.668Z,-1.20
2018-03-02T00:06:30.645Z,-1.20
2018-03-02T00:09:02.189Z,-1.30
2018-03-02T00:11:34.044Z,-1.20
2018-03-02T00:14:04.679Z,-1.30
2018-03-02T00:16:35.414Z,-1.30
2018-03-02T00:19:06.516Z,-1.30
2018-03-02T00:21:37.622Z,-1.40
2018-03-02T00:24:08.609Z,-1.40
2018-03-02T00:26:40.004Z,-1.40
2018-03-02T00:29:11.258Z,-1.40
2018-03-02T00:31:42.329Z,-1.40
2018-03-02T00:34:13.380Z,-1.50
2018-03-02T00:36:44.408Z,-1.60
2018-03-02T00:39:15.663Z,-1.50
2018-03-02T00:41:46.599Z,-1.50
2018-03-02T00:44:18.061Z,-1.70
2018-03-02T00:46:48.942Z,-1.60
2018-03-02T00:49:20.095Z,-1.60
2018-03-02T00:51:51.235Z,-1.60
2018-03-02T00:54:22.341Z,-1.70
2018-03-02T00:56:53.828Z,-1.60
2018-03-02T00:59:26.357Z,-1.60
2018-03-02T01:01:57.571Z,-1.60
2018-03-02T01:04:28.944Z,-1.70
2018-03-02T01:07:00.237Z,-1.70
2018-03-02T01:09:31.791Z,-1.70
2018-03-02T01:12:03.312Z,-1.70
2018-03-02T01:14:35.308Z,-1.80
2018-03-02T01:17:07.168Z,-1.90
2018-03-02T01:19:39.054Z,-1.80
2018-03-02T01:22:09.803Z,-1.80
2018-03-02T01:24:40.935Z,-1.80
2018-03-02T01:27:12.679Z,-1.80
2018-03-02T01:29:43.559Z,-1.90
2018-03-02T01:32:14.478Z,-2.00
2018-03-02T01:34:45.777Z,-1.90
2018-03-02T01:37:17.108Z,-2.10
2018-03-02T01:39:48.198Z,-2.00
2018-03-02T01:42:19.373Z,-2.00
2018-03-02T01:44:50.188Z,-2.10
2018-03-02T01:47:21.459Z,-2.10
2018-03-02T01:49:52.162Z,-2.20
2018-03-02T01:52:23.280Z,-2.20
2018-03-02T01:54:54.204Z,-2.20
2018-03-02T01:57:24.859Z,-2.20
2018-03-02T01:59:55.861Z,-2.30
2018-03-02T02:02:26.604Z,-2.30
2018-03-02T02:04:57.287Z,-2.50
2018-03-02T02:07:28.133Z,-2.40
2018-03-02T02:09:59.162Z,-2.50
2018-03-02T02:12:29.322Z,-2.60
2018-03-02T02:15:00.106Z,-2.60
2018-03-02T02:17:31.278Z,-2.70
2018-03-02T02:20:02.325Z,-2.80
2018-03-02T02:22:32.757Z,-2.90
2018-03-02T02:25:03.301Z,-2.80
2018-03-02T02:27:33.181Z,-2.90
2018-03-02T02:30:04.518Z,-2.90
2018-03-02T02:32:34.903Z,-2.90
2018-03-02T02:35:05.555Z,-3.10
2018-03-02T02:37:37.630Z,-3.00
2018-03-02T02:40:10.304Z,-1.80
2018-03-02T02:42:40.984Z,-3.10
2018-03-02T02:45:15.283Z,-3.20
2018-03-02T02:47:50.171Z,-3.20
2018-03-02T02:50:21.158Z,-3.10
2018-03-02T02:52:51.480Z,-3.10
2018-03-02T02:55:22.261Z,-3.20
2018-03-02T02:57:52.443Z,-3.20
2018-03-02T03:00:23.321Z,-3.20
2018-03-02T03:02:53.654Z,-3.30
2018-03-02T03:05:23.816Z,-3.20
2018-03-02T03:07:54.129Z,-3.20
2018-03-02T03:10:24.421Z,-3.20
2018-03-02T03:12:54.489Z,-3.20
2018-03-02T03:15:24.721Z,-3.30
2018-03-02T03:17:55.057Z,-3.10
2018-03-02T03:20:25.770Z,-3.10
2018-03-02T03:22:55.977Z,-3.20
2018-03-02T03:25:26.232Z,-3.10
2018-03-02T03:27:58.274Z,-3.20
2018-03-02T03:30:28.984Z,-3.20
2018-03-02T03:32:59.342Z,-3.20
2018-03-02T03:35:29.361Z,-3.20
2018-03-02T03:37:59.122Z,-3.30
2018-03-02T03:40:29.492Z,-3.30
2018-03-02T03:42:59.891Z,-3.20
2018-03-02T03:45:30.333Z,-3.20
2018-03-02T03:48:00.492Z,-3.20
2018-03-02T03:50:30.838Z,-3.20
2018-03-02T03:53:01.835Z,-3.20
2018-03-02T03:55:32.573Z,-3.30
2018-03-02T03:58:02.901Z,-3.30
2018-03-02T04:00:33.147Z,-3.30
2018-03-02T04:03:03.100Z,-3.30
2018-03-02T04:05:33.365Z,-4.80
2018-03-02T04:08:04.586Z,-3.40
2018-03-02T04:10:35.037Z,-3.40
2018-03-02T04:13:05.452Z,-0.80
2018-03-02T04:15:35.439Z,-3.40
2018-03-02T04:18:05.574Z,-3.50
2018-03-02T04:20:35.810Z,-3.60
2018-03-02T04:23:06.049Z,-3.50
2018-03-02T04:25:36.292Z,-3.50
2018-03-02T04:28:06.971Z,-3.60
2018-03-02T04:30:37.654Z,-3.50
2018-03-02T04:33:07.792Z,-3.50
2018-03-02T04:35:37.921Z,-3.50
2018-03-02T04:38:08.490Z,-3.50
2018-03-02T04:40:38.613Z,-3.60
2018-03-02T04:43:09.087Z,-3.60
2018-03-02T04:45:39.310Z,-3.70
2018-03-02T04:48:09.414Z,-3.70
2018-03-02T04:50:39.596Z,-3.60
2018-03-02T04:53:09.892Z,-4.30
2018-03-02T04:55:40.141Z,-4.30
2018-03-02T04:58:09.987Z,-3.70
2018-03-02T05:00:40.240Z,-3.70
2018-03-02T05:03:10.444Z,-3.70
2018-03-02T05:05:40.731Z,-3.80
2018-03-02T05:08:11.110Z,-3.80
2018-03-02T05:10:41.433Z,-3.80
2018-03-02T05:13:12.029Z,-2.70
2018-03-02T05:15:42.256Z,-3.80
2018-03-02T05:18:12.618Z,-3.80
2018-03-02T05:20:42.932Z,-3.90
2018-03-02T05:23:13.309Z,-3.90
2018-03-02T05:25:43.848Z,-3.90
2018-03-02T05:28:14.346Z,-3.90
2018-03-02T05:30:44.982Z,-3.90
2018-03-02T05:33:15.533Z,-4.00
2018-03-02T05:35:46.218Z,-3.90
2018-03-02T05:38:16.726Z,-4.00
2018-03-02T05:40:47.300Z,-3.90
2018-03-02T05:43:17.588Z,-3.90
2018-03-02T05:45:48.202Z,-1.70
2018-03-02T05:48:19.307Z,-4.00
2018-03-02T05:50:50.533Z,-4.10
2018-03-02T05:53:21.768Z,-4.00
2018-03-02T05:55:54.849Z,-4.00
2018-03-02T05:58:26.910Z,-4.00
2018-03-02T06:00:58.015Z,-4.00
2018-03-02T06:03:29.179Z,-4.10
2018-03-02T06:06:00.487Z,-4.00
2018-03-02T06:08:31.702Z,-4.00
2018-03-02T06:11:03.604Z,-4.20
2018-03-02T06:13:35.550Z,-4.00
2018-03-02T06:16:06.930Z,-4.00
2018-03-02T06:18:37.896Z,-4.00
2018-03-02T06:21:09.295Z,-4.00
2018-03-02T06:23:40.761Z,-4.00
2018-03-02T06:26:12.301Z,-3.90
2018-03-02T06:28:43.602Z,-3.90
2018-03-02T06:31:14.836Z,-3.90
2018-03-02T06:33:46.340Z,-3.90
2018-03-02T06:36:17.415Z,-3.90
2018-03-02T06:38:48.607Z,-3.90
2018-03-02T06:41:20.235Z,-3.90
2018-03-02T06:43:52.796Z,-4.00
2018-03-02T06:46:27.920Z,-3.90
2018-03-02T06:48:58.847Z,-3.90
2018-03-02T06:51:30.555Z,-3.90
2018-03-02T06:54:04.384Z,-4.20
2018-03-02T06:56:37.259Z,-4.00
2018-03-02T06:59:08.794Z,-3.90
2018-03-02T07:01:39.845Z,-3.90
2018-03-02T07:04:11.458Z,-3.80
2018-03-02T07:06:43.013Z,-3.80
2018-03-02T07:09:14.500Z,-3.70
2018-03-02T07:11:45.726Z,-3.80
2018-03-02T07:14:23.804Z,-3.70
2018-03-02T07:16:55.106Z,-3.80
2018-03-02T07:19:26.289Z,-3.80
2018-03-02T07:21:57.763Z,-3.70
2018-03-02T07:24:28.650Z,-3.80
2018-03-02T07:27:04.199Z,-3.70
2018-03-02T07:29:35.417Z,-3.70
2018-03-02T07:32:07.201Z,-3.70
2018-03-02T07:34:38.762Z,-3.60
2018-03-02T07:37:09.900Z,-3.60
2018-03-02T07:39:41.116Z,-3.70
2018-03-02T07:42:12.269Z,-1.90
2018-03-02T07:44:46.889Z,-3.60
2018-03-02T07:47:18.092Z,-3.60
2018-03-02T07:49:51.426Z,-3.60
2018-03-02T07:52:22.665Z,-3.70
2018-03-02T07:54:54.067Z,-3.60
2018-03-02T07:57:25.374Z,-3.60
2018-03-02T07:59:56.716Z,-3.50
2018-03-02T08:02:27.938Z,-3.60
2018-03-02T08:04:59.114Z,-3.60
2018-03-02T08:07:30.479Z,-3.50
2018-03-02T08:10:02.663Z,-3.50
2018-03-02T08:12:34.001Z,-3.30
2018-03-02T08:15:06.249Z,-3.20
2018-03-02T08:17:37.582Z,-3.30
2018-03-02T08:20:08.625Z,-3.60
2018-03-02T08:22:40.040Z,-3.10
2018-03-02T08:25:30.232Z,-3.10
2018-03-02T08:28:01.588Z,-3.10
2018-03-02T08:30:32.807Z,-3.10
2018-03-02T08:33:03.854Z,-3.00
2018-03-02T08:35:35.441Z,-2.90
2018-03-02T08:40:44.972Z,-2.90
2018-03-02T08:43:16.267Z,-2.80
2018-03-02T08:45:51.765Z,-2.80
2018-03-02T08:48:37.156Z,-2.90
2018-03-02T08:51:22.561Z,-2.80
2018-03-02T08:53:53.794Z,-2.90
2018-03-02T08:56:24.890Z,-2.90
2018-03-02T08:58:56.148Z,-2.80
2018-03-02T09:01:27.461Z,-2.80
2018-03-02T09:03:58.458Z,-2.70
2018-03-02T09:06:29.476Z,-2.60
2018-03-02T09:09:01.612Z,-2.60
2018-03-02T09:11:33.206Z,-2.60
2018-03-02T09:14:04.890Z,-2.60
2018-03-02T09:16:38.065Z,-2.60
2018-03-02T09:19:09.335Z,-2.60
2018-03-02T09:21:42.615Z,-2.50
2018-03-02T09:24:13.913Z,-2.50
2018-03-02T09:26:45.090Z,-2.60
2018-03-02T09:29:22.965Z,-2.40
2018-03-02T09:31:54.438Z,-2.30
2018-03-02T09:34:26.406Z,-2.40
2018-03-02T09:36:58.083Z,-2.40
2018-03-02T09:39:30.721Z,-2.30
2018-03-02T09:42:03.064Z,-2.50
2018-03-02T09:44:34.626Z,-2.30
2018-03-02T09:47:05.925Z,-2.40
2018-03-02T09:49:36.985Z,-2.30
2018-03-02T09:52:08.411Z,-1.50
2018-03-02T09:54:39.370Z,-2.00
2018-03-02T09:57:10.936Z,-1.90
2018-03-02T09:59:42.610Z,-1.90
2018-03-02T10:02:13.731Z,-1.80
2018-03-02T10:04:45.239Z,-1.60
2018-03-02T10:07:16.288Z,-1.50
2018-03-02T10:09:47.217Z,-1.90
2018-03-02T10:12:19.259Z,1.10
2018-03-02T10:14:53.639Z,-1.70
2018-03-02T10:17:24.890Z,-1.50
2018-03-02T10:19:55.961Z,-1.50
2018-03-02T10:22:27.739Z,-1.20
2018-03-02T10:25:04.031Z,-0.80
2018-03-02T10:27:35.076Z,-0.50
2018-03-02T10:30:06.552Z,-0.20
2018-03-02T10:32:37.601Z,-0.20
2018-03-02T10:35:08.850Z,0.10
2018-03-02T10:37:39.784Z,0.10
2018-03-02T10:40:10.956Z,1.40
2018-03-02T10:42:49.559Z,0.00
2018-03-02T10:45:21.373Z,-0.20
2018-03-02T10:47:51.938Z,-0.20
2018-03-02T10:50:23.092Z,-0.30
2018-03-02T10:52:54.596Z,-0.40
2018-03-02T10:55:26.062Z,-0.40
2018-03-02T10:57:57.268Z,-0.40
2018-03-02T11:00:32.361Z,-0.30
2018-03-02T11:03:03.626Z,-0.30
2018-03-02T11:05:42.899Z,-0.20
2018-03-02T11:08:16.122Z,-0.10
2018-03-02T11:10:47.658Z,-0.10
2018-03-02T11:13:19.096Z,-0.10
2018-03-02T11:15:52.445Z,-0.10
2018-03-02T11:18:23.303Z,0.00
2018-03-02T11:20:54.185Z,0.00
2018-03-02T11:23:25.492Z,-0.20
2018-03-02T11:25:56.578Z,-0.10
2018-03-02T11:28:27.309Z,-0.10
2018-03-02T11:30:58.565Z,1.40
2018-03-02T11:33:29.790Z,-0.10
2018-03-02T11:36:01.072Z,-0.10
2018-03-02T11:38:34.031Z,0.00
2018-03-02T11:41:08.637Z,0.00
2018-03-02T11:43:41.359Z,-0.10
2018-03-02T11:46:14.858Z,0.10
2018-03-02T11:48:50.071Z,0.20
2018-03-02T11:51:21.578Z,0.20
2018-03-02T11:53:54.269Z,0.10
2018-03-02T11:56:25.810Z,0.30
2018-03-02T11:59:03.500Z,0.30
2018-03-02T12:01:35.411Z,0.30
2018-03-02T12:07:08.766Z,0.50
2018-03-02T12:09:40.050Z,0.50
2018-03-02T12:12:11.044Z,0.60
2018-03-02T12:14:42.967Z,0.40
2018-03-02T12:17:14.009Z,0.50
2018-03-02T12:19:47.161Z,0.40
2018-03-02T12:22:34.246Z,0.60
2018-03-02T12:25:10.249Z,0.70
2018-03-02T12:27:42.076Z,0.70
2018-03-02T12:30:16.769Z,0.80
2018-03-02T12:32:47.912Z,1.10
2018-03-02T12:35:19.693Z,1.20
2018-03-02T12:37:50.778Z,1.30
2018-03-02T12:40:22.129Z,1.30
2018-03-02T12:42:53.268Z,1.50
2018-03-02T12:45:24.891Z,1.80
2018-03-02T12:47:56.987Z,2.00
2018-03-02T12:50:27.888Z,2.00
2018-03-02T12:52:58.953Z,2.00
2018-03-02T12:55:30.218Z,1.90
2018-03-02T12:58:00.976Z,1.90
2018-03-02T13:00:32.053Z,1.90
2018-03-02T13:03:03.441Z,1.90
2018-03-02T13:05:34.713Z,2.00
2018-03-02T13:08:06.044Z,2.00
2018-03-02T13:10:36.905Z,2.00
2018-03-02T13:13:26.129Z,2.00
2018-03-02T13:16:09.862Z,1.80
2018-03-02T13:18:44.668Z,1.80
2018-03-02T13:21:15.973Z,1.80
2018-03-02T13:23:47.004Z,1.70
2018-03-02T13:26:26.720Z,1.60
2018-03-02T13:29:01.824Z,1.70
2018-03-02T13:31:32.877Z,1.70
2018-03-02T13:34:14.661Z,1.70
2018-03-02T13:36:45.665Z,1.70
2018-03-02T13:39:28.781Z,1.60
2018-03-02T13:42:06.469Z,1.80
2018-03-02T13:44:38.720Z,1.60
2018-03-02T13:47:09.789Z,1.50
2018-03-02T13:50:31.864Z,1.40
2018-03-02T13:53:07.948Z,1.40
2018-03-02T13:55:39.721Z,1.50
2018-03-02T13:58:10.724Z,1.50
2018-03-02T14:00:41.946Z,1.60
2018-03-02T14:05:25.895Z,1.70
2018-03-02T14:08:59.090Z,1.60
2018-03-02T14:11:29.750Z,1.50
2018-03-02T14:14:00.645Z,1.50
2018-03-02T14:16:31.743Z,1.60
2018-03-02T14:19:03.422Z,1.50
2018-03-02T14:21:34.503Z,1.40
2018-03-02T14:24:06.296Z,1.50
2018-03-02T14:28:07.308Z,1.50
2018-03-02T14:30:38.074Z,1.70
2018-03-02T14:33:09.048Z,1.30
2018-03-02T14:35:39.718Z,1.30
2018-03-02T14:38:11.725Z,1.20
2018-03-02T14:40:47.201Z,1.20
2018-03-02T14:43:18.301Z,1.10
2018-03-02T14:45:49.354Z,1.10
2018-03-02T14:48:20.424Z,1.00
2018-03-02T14:50:51.024Z,1.00
2018-03-02T14:53:21.782Z,1.60
2018-03-02T14:55:52.513Z,1.00
2018-03-02T14:58:23.187Z,1.00
2018-03-02T15:00:53.945Z,1.00
2018-03-02T15:03:24.548Z,1.00
2018-03-02T15:05:55.279Z,1.10
2018-03-02T15:08:27.010Z,1.20
2018-03-02T15:10:57.676Z,1.20
2018-03-02T15:13:28.448Z,2.70
2018-03-02T15:15:59.130Z,1.00
2018-03-02T15:18:30.090Z,1.00
2018-03-02T15:21:01.118Z,0.90
2018-03-02T15:23:33.449Z,1.00
2018-03-02T15:26:07.283Z,1.00
2018-03-02T15:28:37.868Z,0.80
2018-03-02T15:31:08.547Z,0.90
2018-03-02T15:33:39.058Z,2.70
2018-03-02T15:36:10.981Z,0.90
2018-03-02T15:38:46.724Z,1.00
2018-03-02T15:41:17.548Z,3.30
2018-03-02T15:43:55.463Z,1.00
2018-03-02T15:46:26.328Z,1.00
2018-03-02T15:48:56.858Z,0.90
2018-03-02T15:51:27.535Z,1.00
2018-03-02T15:53:58.786Z,1.00
2018-03-02T15:56:33.757Z,1.00
2018-03-02T15:59:05.250Z,1.00
2018-03-02T16:01:36.350Z,1.00
2018-03-02T16:04:07.589Z,1.00
2018-03-02T16:06:38.648Z,1.00
2018-03-02T16:09:09.555Z,1.00
2018-03-02T16:11:53.144Z,1.00
2018-03-02T16:14:24.143Z,1.00
2018-03-02T16:16:55.909Z,1.00
2018-03-02T16:19:26.525Z,1.00
2018-03-02T16:21:57.332Z,0.90
2018-03-02T16:24:28.213Z,1.00
2018-03-02T16:27:03.919Z,1.00
2018-03-02T16:29:34.746Z,1.00
2018-03-02T16:32:05.946Z,0.90
2018-03-02T16:34:36.553Z,0.90
2018-03-02T16:37:27.438Z,0.80
2018-03-02T16:39:58.873Z,0.70
2018-03-02T16:42:31.251Z,0.70
2018-03-02T16:45:03.160Z,0.70
2018-03-02T16:47:35.285Z,3.20
2018-03-02T16:50:06.223Z,0.60
2018-03-02T16:52:38.312Z,0.50
2018-03-02T16:55:09.921Z,0.50
2018-03-02T16:57:56.060Z,-0.70
2018-03-02T17:00:27.435Z,0.50
2018-03-02T17:02:58.482Z,0.50
2018-03-02T17:05:37.428Z,0.50
2018-03-02T17:08:07.945Z,0.50
2018-03-02T17:10:38.773Z,0.50
2018-03-02T17:13:09.984Z,2.30
2018-03-02T17:15:40.905Z,0.50
2018-03-02T17:18:14.985Z,0.50
2018-03-02T17:20:45.762Z,0.50
2018-03-02T17:23:17.050Z,0.50
2018-03-02T17:25:48.617Z,0.50
2018-03-02T17:28:24.838Z,0.50
2018-03-02T17:30:55.988Z,0.40
2018-03-02T17:33:35.129Z,0.40
2018-03-02T17:36:05.930Z,0.40
2018-03-02T17:38:37.512Z,0.40
2018-03-02T17:41:08.568Z,0.30
2018-03-02T17:43:40.224Z,0.20
2018-03-02T17:46:10.797Z,0.40
2018-03-02T17:48:48.605Z,0.40
2018-03-02T17:51:21.107Z,0.40
2018-03-02T17:53:52.710Z,0.40
2018-03-02T17:56:24.144Z,0.30
2018-03-02T17:58:57.285Z,0.30
2018-03-02T18:01:27.888Z,0.30
2018-03-02T18:03:58.882Z,0.20
2018-03-02T18:06:29.644Z,0.20
2018-03-02T18:09:01.842Z,0.20
2018-03-02T18:11:59.167Z,0.10
2018-03-02T18:14:38.228Z,0.00
2018-03-02T18:23:44.651Z,-0.10
2018-03-02T18:26:20.348Z,-0.10
2018-03-02T18:28:51.268Z,-0.10
2018-03-02T18:31:21.897Z,-0.20
2018-03-02T18:33:52.466Z,-0.20
2018-03-02T18:36:23.537Z,-0.20
2018-03-02T18:38:54.538Z,-0.20
2018-03-02T18:41:26.178Z,-0.20
2018-03-02T18:43:58.130Z,-0.20
2018-03-02T18:46:29.355Z,-0.20
2018-03-02T18:49:06.778Z,-0.20
2018-03-02T18:51:40.989Z,-0.30
2018-03-02T18:54:18.373Z,-0.30
2018-03-02T18:57:04.589Z,-0.30
2018-03-02T18:59:38.157Z,-0.40
2018-03-02T19:02:20.417Z,-0.30
2018-03-02T19:05:27.125Z,-0.40
2018-03-02T19:08:05.296Z,-0.40
2018-03-02T19:10:36.779Z,-0.40
2018-03-02T19:13:08.018Z,-0.50
2018-03-02T19:15:41.270Z,-0.50
2018-03-02T19:18:24.419Z,-0.50
2018-03-02T19:20:56.133Z,-0.70
2018-03-02T19:23:27.365Z,-0.60
2018-03-02T19:25:58.185Z,-0.70
2018-03-02T19:28:32.412Z,-0.80
2018-03-02T19:31:03.414Z,-1.00
2018-03-02T19:33:35.411Z,-1.20
2018-03-02T19:37:05.379Z,-1.50
2018-03-02T19:42:56.028Z,-1.60
2018-03-02T19:49:35.655Z,-1.60
2018-03-02T19:55:11.089Z,-1.70
2018-03-02T19:57:57.101Z,-1.70
2018-03-02T20:00:28.022Z,-1.80
2018-03-02T20:03:10.297Z,-1.80
2018-03-02T20:18:51.487Z,-1.80
2018-03-02T20:21:46.221Z,-1.70
2018-03-02T20:24:19.086Z,-1.70
2018-03-02T20:26:51.762Z,-1.60
2018-03-02T20:39:41.050Z,-1.50
2018-03-02T20:42:15.570Z,-1.60
2018-03-02T20:45:17.065Z,-1.50
2018-03-02T20:58:14.505Z,-1.50
2018-03-02T21:00:45.381Z,-1.50
2018-03-02T21:03:15.942Z,-1.50
2018-03-02T21:05:46.642Z,-1.50
2018-03-02T21:08:17.399Z,-1.50
2018-03-02T21:10:49.191Z,-1.50
2018-03-02T21:13:19.863Z,-1.60
2018-03-02T21:15:51.772Z,-1.60
2018-03-02T21:18:23.405Z,-1.70
2018-03-02T21:20:54.157Z,-1.70
2018-03-02T21:23:25.253Z,-1.70
2018-03-02T21:25:57.899Z,-1.70
2018-03-02T21:28:32.819Z,-1.70
2018-03-02T21:31:03.488Z,-1.70
2018-03-02T21:33:34.407Z,-1.70
2018-03-02T21:36:05.054Z,-1.70
2018-03-02T21:38:35.815Z,-1.70
2018-03-02T21:41:08.053Z,-1.70
2018-03-02T21:43:43.747Z,-1.70
2018-03-02T21:52:54.360Z,-1.70
2018-03-02T21:56:11.740Z,-1.70
2018-03-02T21:58:44.112Z,-1.70
2018-03-02T22:01:15.421Z,-1.80
2018-03-02T22:03:45.876Z,-1.70
2018-03-02T22:06:16.471Z,-1.60
2018-03-02T22:08:47.063Z,-1.70
2018-03-02T22:11:25.418Z,-1.60
2018-03-02T22:14:04.382Z,-1.60
2018-03-02T22:16:42.517Z,-1.60
2018-03-02T22:19:15.852Z,-1.60
2018-03-02T22:22:01.202Z,-1.60
2018-03-02T22:24:34.024Z,-1.60
2018-03-02T22:27:06.463Z,-1.60
2018-03-02T22:29:37.177Z,-1.60
2018-03-02T22:32:24.918Z,-1.60
2018-03-02T22:35:06.600Z,-1.60
2018-03-02T22:37:44.078Z,-1.70
2018-03-02T22:40:14.887Z,-1.70
2018-03-02T22:42:45.806Z,-1.60
2018-03-02T22:45:17.063Z,-1.60
2018-03-02T22:47:48.040Z,-1.50
2018-03-02T22:50:19.142Z,-1.50
2018-03-02T22:52:49.996Z,1.00
2018-03-02T22:55:21.097Z,-1.50
2018-03-02T22:57:51.881Z,-1.50
2018-03-02T23:00:23.814Z,-1.50
2018-03-02T23:02:54.645Z,-1.50
2018-03-02T23:05:24.981Z,-1.60
2018-03-02T23:12:02.853Z,-1.50
2018-03-02T23:14:46.240Z,-1.50
2018-03-02T23:17:18.605Z,-1.60
2018-03-02T23:19:50.236Z,-1.60
2018-03-02T23:22:21.583Z,-1.60
2018-03-02T23:24:52.395Z,-1.60
2018-03-02T23:27:24.033Z,-1.60
2018-03-02T23:29:55.070Z,-0.30
2018-03-02T23:32:26.254Z,-1.50
2018-03-02T23:34:57.277Z,-1.50
2018-03-02T23:37:28.286Z,-1.50
2018-03-02T23:39:59.724Z,-1.50
2018-03-02T23:42:30.635Z,-1.60
2018-03-02T23:45:01.683Z,-1.50
2018-03-02T23:47:33.236Z,-1.50
2018-03-02T23:50:18.516Z,-1.40
2018-03-02T23:52:50.866Z,-1.40
2018-03-02T23:55:22.350Z,-1.40
2018-03-02T23:57:52.989Z,-1.40
